Terminal Aerodrome Forecast
Issued by NWS

Home | Current Version | Previous Version | Text Only | Print | Product List | Glossary On
Versions: 1 2 3 4 5 6 7 8 9 10 11 12 13 14
000
FTUS44 KJAN 282320
TAFHKS
TAF
KHKS 282320Z 2900/2924 VRB03KT P6SM VCSH SCT050 BKN070
     FM290200 VRB03KT P6SM FEW060
     FM291500 31005KT P6SM SCT050
     FM291900 33006KT P6SM VCTS SCT040 BKN060CB=

USA.gov is the U.S. government's official web portal to all federal, state and local government web resources and services.